<?xml version="1.0" encoding="UTF-8" standalone="no" ?>
<gpx xmlns="http://www.topografix.com/GPX/1/1" xmlns:xsi="http://www.w3.org/2001/XMLSchema-instance" xsi:schemaLocation="http://www.topografix.com/GPX/1/1 http://www.topografix.com/GPX/1/1/gpx.xsd" version="1.1" creator="VisuGPX - https://www.visugpx.com">
  <metadata>
    <name>rando Scean St Angel pentecôte 2012</name>
    <desc><![CDATA[trace de la randonnée de Sceau St Angel 2012
  tunnel ferrovière]]></desc>
  </metadata>
  <wpt lat="45.50694" lon="0.67361">
    <ele>211</ele>
    <name><![CDATA[carrefour]]></name>
    <desc><![CDATA[27-MAI-12 5:04:32PM]]></desc>
    <cmt><![CDATA[27-MAI-12 5:04:32PM]]></cmt>
  </wpt>
  <wpt lat="45.50564" lon="0.67534">
    <ele>210</ele>
    <name><![CDATA[garde barrière 27]]></name>
    <desc><![CDATA[27-MAI-12 5:09:13PM]]></desc>
    <cmt><![CDATA[27-MAI-12 5:09:13PM]]></cmt>
  </wpt>
  <wpt lat="45.51248" lon="0.6723">
    <ele>223</ele>
    <name><![CDATA[tunnel]]></name>
    <desc><![CDATA[27-MAI-12 4:37:24PM]]></desc>
    <cmt><![CDATA[27-MAI-12 4:37:24PM]]></cmt>
  </wpt>
  <wpt lat="45.50833" lon="0.67279">
    <ele>227</ele>
    <name><![CDATA[tunnel-1]]></name>
    <desc><![CDATA[27-MAI-12 4:56:19PM]]></desc>
    <cmt><![CDATA[27-MAI-12 4:56:19PM]]></cmt>
  </wpt>
  <trk>
    <name><![CDATA[ACTIVE LOG 002]]></name>
    <trkseg>
      <trkpt lat="45.50834" lon="0.67279">
        <ele>227</ele>
        <time>2012-05-27T14:55:56Z</time>
      </trkpt>
      <trkpt lat="45.50831" lon="0.67282">
        <ele>219</ele>
        <time>2012-05-27T14:56:59Z</time>
      </trkpt>
      <trkpt lat="45.50827" lon="0.67283">
        <ele>219</ele>
        <time>2012-05-27T14:57:14Z</time>
      </trkpt>
      <trkpt lat="45.50815" lon="0.67295">
        <ele>219</ele>
        <time>2012-05-27T14:57:38Z</time>
      </trkpt>
      <trkpt lat="45.50793" lon="0.67293">
        <ele>218</ele>
        <time>2012-05-27T14:58:13Z</time>
      </trkpt>
      <trkpt lat="45.50791" lon="0.67297">
        <ele>217</ele>
        <time>2012-05-27T14:58:38Z</time>
      </trkpt>
      <trkpt lat="45.5078" lon="0.67301">
        <ele>217</ele>
        <time>2012-05-27T14:59:34Z</time>
      </trkpt>
      <trkpt lat="45.50769" lon="0.67312">
        <ele>216</ele>
        <time>2012-05-27T14:59:56Z</time>
      </trkpt>
      <trkpt lat="45.50772" lon="0.67314">
        <ele>216</ele>
        <time>2012-05-27T15:00:08Z</time>
      </trkpt>
      <trkpt lat="45.50768" lon="0.67317">
        <ele>216</ele>
        <time>2012-05-27T15:00:20Z</time>
      </trkpt>
      <trkpt lat="45.50759" lon="0.67321">
        <ele>215</ele>
        <time>2012-05-27T15:01:11Z</time>
      </trkpt>
      <trkpt lat="45.50753" lon="0.67321">
        <ele>214</ele>
        <time>2012-05-27T15:01:27Z</time>
      </trkpt>
      <trkpt lat="45.50752" lon="0.67328">
        <ele>213</ele>
        <time>2012-05-27T15:03:08Z</time>
      </trkpt>
      <trkpt lat="45.50735" lon="0.67337">
        <ele>212</ele>
        <time>2012-05-27T15:03:33Z</time>
      </trkpt>
      <trkpt lat="45.50726" lon="0.67344">
        <ele>211</ele>
        <time>2012-05-27T15:03:44Z</time>
      </trkpt>
      <trkpt lat="45.50707" lon="0.6736">
        <ele>211</ele>
        <time>2012-05-27T15:04:09Z</time>
      </trkpt>
      <trkpt lat="45.50698" lon="0.67366">
        <ele>211</ele>
        <time>2012-05-27T15:04:19Z</time>
      </trkpt>
      <trkpt lat="45.50695" lon="0.67367">
        <ele>211</ele>
        <time>2012-05-27T15:04:23Z</time>
      </trkpt>
      <trkpt lat="45.50694" lon="0.67361">
        <ele>211</ele>
        <time>2012-05-27T15:04:34Z</time>
      </trkpt>
      <trkpt lat="45.50693" lon="0.67361">
        <ele>211</ele>
        <time>2012-05-27T15:04:50Z</time>
      </trkpt>
      <trkpt lat="45.5069" lon="0.67362">
        <ele>211</ele>
        <time>2012-05-27T15:04:54Z</time>
      </trkpt>
      <trkpt lat="45.50686" lon="0.67372">
        <ele>211</ele>
        <time>2012-05-27T15:05:05Z</time>
      </trkpt>
      <trkpt lat="45.50679" lon="0.67385">
        <ele>211</ele>
        <time>2012-05-27T15:05:20Z</time>
      </trkpt>
      <trkpt lat="45.50662" lon="0.67403">
        <ele>210</ele>
        <time>2012-05-27T15:05:31Z</time>
      </trkpt>
      <trkpt lat="45.50653" lon="0.67417">
        <ele>210</ele>
        <time>2012-05-27T15:05:40Z</time>
      </trkpt>
      <trkpt lat="45.50645" lon="0.67431">
        <ele>210</ele>
        <time>2012-05-27T15:05:51Z</time>
      </trkpt>
      <trkpt lat="45.50645" lon="0.67433">
        <ele>210</ele>
        <time>2012-05-27T15:06:17Z</time>
      </trkpt>
      <trkpt lat="45.50631" lon="0.67444">
        <ele>210</ele>
        <time>2012-05-27T15:06:58Z</time>
      </trkpt>
      <trkpt lat="45.50616" lon="0.67488">
        <ele>210</ele>
        <time>2012-05-27T15:07:33Z</time>
      </trkpt>
      <trkpt lat="45.50602" lon="0.67498">
        <ele>210</ele>
        <time>2012-05-27T15:07:59Z</time>
      </trkpt>
      <trkpt lat="45.5059" lon="0.67516">
        <ele>210</ele>
        <time>2012-05-27T15:08:30Z</time>
      </trkpt>
      <trkpt lat="45.50585" lon="0.6752">
        <ele>209</ele>
        <time>2012-05-27T15:08:35Z</time>
      </trkpt>
      <trkpt lat="45.50581" lon="0.67529">
        <ele>210</ele>
        <time>2012-05-27T15:08:44Z</time>
      </trkpt>
      <trkpt lat="45.5058" lon="0.67531">
        <ele>210</ele>
        <time>2012-05-27T15:08:45Z</time>
      </trkpt>
      <trkpt lat="45.50574" lon="0.67538">
        <ele>210</ele>
        <time>2012-05-27T15:09:00Z</time>
      </trkpt>
      <trkpt lat="45.50573" lon="0.67537">
        <ele>210</ele>
        <time>2012-05-27T15:09:01Z</time>
      </trkpt>
      <trkpt lat="45.50564" lon="0.67534">
        <ele>210</ele>
        <time>2012-05-27T15:09:13Z</time>
      </trkpt>
      <trkpt lat="45.50566" lon="0.67538">
        <ele>210</ele>
        <time>2012-05-27T15:09:22Z</time>
      </trkpt>
      <trkpt lat="45.50565" lon="0.67542">
        <ele>210</ele>
        <time>2012-05-27T15:09:26Z</time>
      </trkpt>
      <trkpt lat="45.5056" lon="0.67544">
        <ele>210</ele>
        <time>2012-05-27T15:09:44Z</time>
      </trkpt>
      <trkpt lat="45.50559" lon="0.67546">
        <ele>210</ele>
        <time>2012-05-27T15:10:01Z</time>
      </trkpt>
      <trkpt lat="45.50559" lon="0.67544">
        <ele>210</ele>
        <time>2012-05-27T15:10:13Z</time>
      </trkpt>
      <trkpt lat="45.50552" lon="0.67553">
        <ele>210</ele>
        <time>2012-05-27T15:10:42Z</time>
      </trkpt>
      <trkpt lat="45.50548" lon="0.67553">
        <ele>210</ele>
        <time>2012-05-27T15:11:20Z</time>
      </trkpt>
      <trkpt lat="45.50546" lon="0.67549">
        <ele>210</ele>
        <time>2012-05-27T15:11:33Z</time>
      </trkpt>
      <trkpt lat="45.50546" lon="0.67543">
        <ele>211</ele>
        <time>2012-05-27T15:11:59Z</time>
      </trkpt>
      <trkpt lat="45.50558" lon="0.67532">
        <ele>211</ele>
        <time>2012-05-27T15:13:02Z</time>
      </trkpt>
      <trkpt lat="45.50568" lon="0.67537">
        <ele>210</ele>
        <time>2012-05-27T15:13:34Z</time>
      </trkpt>
      <trkpt lat="45.50565" lon="0.67547">
        <ele>210</ele>
        <time>2012-05-27T15:14:02Z</time>
      </trkpt>
      <trkpt lat="45.50569" lon="0.67551">
        <ele>209</ele>
        <time>2012-05-27T15:14:21Z</time>
      </trkpt>
      <trkpt lat="45.5057" lon="0.67544">
        <ele>210</ele>
        <time>2012-05-27T15:14:48Z</time>
      </trkpt>
      <trkpt lat="45.50559" lon="0.67533">
        <ele>210</ele>
        <time>2012-05-27T15:15:03Z</time>
      </trkpt>
      <trkpt lat="45.5056" lon="0.67534">
        <ele>210</ele>
        <time>2012-05-27T15:15:26Z</time>
      </trkpt>
      <trkpt lat="45.50572" lon="0.67547">
        <ele>210</ele>
        <time>2012-05-27T15:16:01Z</time>
      </trkpt>
      <trkpt lat="45.50576" lon="0.67551">
        <ele>209</ele>
        <time>2012-05-27T15:16:30Z</time>
      </trkpt>
    </trkseg>
  </trk>
</gpx>